Time;durP1;ratioP1;P1;durP2;ratioP2;P2;SDS_P1;SDS_P2;PMS_P1;PMS_P2;Temp;Humidity;BMP_temperature;BMP_pressure;BME280_temperature;BME280_humidity;BME280_pressure;Samples;Min_cycle;Max_cycle;Signal;HPM_P1;HPM_P2
2022/08/20 00:00:59;;;;;;;21.75;12.93;;;18.10;99.90;;;;;;5038384;28;20049;-60
2022/08/20 00:03:28;;;;;;;23.98;11.90;;;17.90;99.90;;;;;;5039358;28;20060;-60
2022/08/20 00:05:58;;;;;;;28.27;13.38;;;17.70;99.90;;;;;;5036084;28;20056;-61
2022/08/20 00:08:25;;;;;;;17.50;12.20;;;18.30;99.90;;;;;;5041678;28;20106;-59
2022/08/20 00:10:52;;;;;;;23.75;12.77;;;18.30;99.90;;;;;;5045567;28;20040;-60
2022/08/20 00:13:27;;;;;;;20.05;12.60;;;18.30;99.90;;;;;;5042943;28;20064;-61
2022/08/20 00:15:53;;;;;;;26.25;13.45;;;18.30;99.90;;;;;;5041576;28;20374;-59
2022/08/20 00:18:19;;;;;;;22.50;13.15;;;18.10;99.90;;;;;;5043904;28;20048;-59
2022/08/20 00:20:48;;;;;;;20.98;12.75;;;18.10;99.90;;;;;;5040387;28;20107;-60
2022/08/20 00:23:15;;;;;;;18.85;12.32;;;18.00;99.90;;;;;;5038553;28;20424;-61
2022/08/20 00:25:41;;;;;;;18.92;12.43;;;18.20;99.90;;;;;;5046327;28;20041;-60
2022/08/20 00:28:07;;;;;;;26.75;13.40;;;18.20;99.90;;;;;;5045955;28;20815;-61
2022/08/20 00:30:35;;;;;;;19.00;11.77;;;17.90;99.90;;;;;;5045315;28;20136;-59
2022/08/20 00:33:14;;;;;;;20.55;12.60;;;17.70;99.90;;;;;;5045781;28;20041;-60
2022/08/20 00:35:44;;;;;;;19.13;11.88;;;18.10;99.90;;;;;;5027998;28;20354;-60
2022/08/20 00:38:10;;;;;;;17.60;11.32;;;17.70;99.90;;;;;;5040348;28;20048;-60
2022/08/20 00:40:40;;;;;;;24.02;12.60;;;17.50;99.90;;;;;;5042664;28;20090;-61
2022/08/20 00:43:23;;;;;;;20.33;12.57;;;17.60;99.90;;;;;;5043309;28;20047;-60
2022/08/20 00:45:49;;;;;;;25.95;12.70;;;17.50;99.90;;;;;;5047790;28;20041;-60
2022/08/20 00:48:15;;;;;;;24.85;13.07;;;17.70;99.90;;;;;;5041851;28;20718;-60
2022/08/20 00:50:41;;;;;;;20.15;12.23;;;17.50;99.90;;;;;;5042322;28;20037;-59
2022/08/20 00:53:07;;;;;;;24.83;12.50;;;17.60;99.90;;;;;;5043639;28;20029;-60
2022/08/20 00:55:34;;;;;;;17.65;12.73;;;17.50;99.90;;;;;;5047858;28;20041;-59
2022/08/20 00:58:04;;;;;;;23.30;12.15;;;17.40;99.90;;;;;;5045158;28;20045;-62
2022/08/20 01:00:41;;;;;;;25.73;12.77;;;17.50;99.90;;;;;;5046466;28;20037;-62
2022/08/20 01:03:10;;;;;;;21.83;13.20;;;17.50;99.90;;;;;;5035255;28;20661;-59
2022/08/20 01:05:41;;;;;;;24.83;12.77;;;17.50;99.90;;;;;;5040413;28;20099;-60
2022/08/20 01:08:08;;;;;;;21.42;11.98;;;17.50;99.90;;;;;;5034895;28;20567;-61
2022/08/20 01:10:37;;;;;;;20.05;12.57;;;17.40;99.90;;;;;;5048886;28;20459;-60
2022/08/20 01:13:09;;;;;;;25.90;13.17;;;17.50;99.90;;;;;;5043065;28;20041;-60
2022/08/20 01:15:39;;;;;;;18.77;12.02;;;17.90;99.90;;;;;;5039465;28;20080;-60
2022/08/20 01:18:06;;;;;;;21.00;13.13;;;17.60;99.90;;;;;;5045510;28;20044;-61
2022/08/20 01:20:41;;;;;;;20.90;12.27;;;17.70;99.90;;;;;;5042785;28;20550;-59
2022/08/20 01:23:28;;;;;;;23.95;13.43;;;17.90;99.90;;;;;;5047298;28;20048;-59
2022/08/20 01:26:12;;;;;;;20.23;12.45;;;17.70;99.90;;;;;;5041826;28;20060;-60
2022/08/20 01:28:43;;;;;;;21.50;11.95;;;17.60;99.90;;;;;;5040203;28;20783;-62
2022/08/20 01:31:13;;;;;;;20.35;11.95;;;17.80;99.90;;;;;;5043073;28;20041;-60
2022/08/20 01:33:40;;;;;;;19.23;12.13;;;17.50;99.90;;;;;;5031568;28;20044;-60
2022/08/20 01:36:06;;;;;;;25.30;12.40;;;17.20;99.90;;;;;;5034807;28;20098;-60
2022/08/20 01:38:32;;;;;;;21.77;11.68;;;17.20;99.90;;;;;;5046865;28;20441;-60
2022/08/20 01:41:42;;;;;;;18.35;12.27;;;17.30;99.90;;;;;;5035957;28;20067;-60
2022/08/20 01:44:08;;;;;;;20.05;11.93;;;17.40;99.90;;;;;;5013943;28;20068;-62
2022/08/20 01:46:37;;;;;;;19.15;11.43;;;17.50;99.90;;;;;;5030363;28;20041;-60
2022/08/20 01:49:22;;;;;;;19.63;11.13;;;17.10;99.90;;;;;;5037528;28;20567;-59
2022/08/20 01:51:49;;;;;;;19.50;11.38;;;17.20;99.90;;;;;;5037971;28;20392;-60
2022/08/20 01:54:15;;;;;;;21.88;11.80;;;17.40;99.90;;;;;;5048269;28;20041;-60
2022/08/20 01:57:01;;;;;;;20.42;12.02;;;17.20;99.90;;;;;;5047849;28;20072;-60
2022/08/20 01:59:28;;;;;;;20.63;11.07;;;17.30;99.90;;;;;;5038045;28;20041;-60
2022/08/20 02:01:57;;;;;;;18.90;12.13;;;17.10;99.90;;;;;;5035994;28;20148;-60
2022/08/20 02:04:23;;;;;;;21.63;11.52;;;17.20;99.90;;;;;;5032334;28;20048;-61
2022/08/20 02:06:58;;;;;;;18.55;11.27;;;17.30;99.90;;;;;;5041794;28;20045;-59
2022/08/20 02:09:26;;;;;;;16.95;11.02;;;17.00;99.90;;;;;;5042530;28;20487;-60
2022/08/20 02:11:52;;;;;;;24.10;11.32;;;17.00;99.90;;;;;;5046924;28;20397;-60
2022/08/20 02:14:18;;;;;;;23.63;11.60;;;16.90;99.90;;;;;;5047788;28;20048;-60
2022/08/20 02:16:48;;;;;;;19.80;11.57;;;17.30;99.90;;;;;;5049597;28;20037;-59
2022/08/20 02:19:28;;;;;;;19.25;11.60;;;17.30;99.90;;;;;;5040296;28;20076;-59
2022/08/20 02:21:57;;;;;;;19.90;10.90;;;17.30;99.90;;;;;;5047355;28;20079;-60
2022/08/20 02:24:23;;;;;;;18.23;10.85;;;17.20;99.90;;;;;;5043963;28;20361;-60
2022/08/20 02:26:49;;;;;;;17.25;10.88;;;16.90;99.90;;;;;;5035790;28;20123;-60
2022/08/20 02:29:15;;;;;;;24.02;11.00;;;17.10;99.90;;;;;;5044187;28;20037;-60
2022/08/20 02:31:44;;;;;;;22.88;10.68;;;17.00;99.90;;;;;;5044210;28;20461;-60
2022/08/20 02:34:10;;;;;;;16.73;10.32;;;17.00;99.90;;;;;;5037972;28;20080;-60
2022/08/20 02:36:37;;;;;;;16.25;9.93;;;16.70;99.90;;;;;;5034811;28;20051;-60
2022/08/20 02:39:09;;;;;;;18.83;10.80;;;16.80;99.90;;;;;;5041605;28;20346;-60
2022/08/20 02:41:36;;;;;;;18.75;10.68;;;16.90;99.90;;;;;;5033311;28;20524;-60
2022/08/20 02:44:03;;;;;;;19.48;9.93;;;16.70;99.90;;;;;;5036714;28;20386;-60
2022/08/20 02:46:29;;;;;;;17.63;10.45;;;16.90;99.90;;;;;;5030370;28;20059;-62
2022/08/20 02:48:56;;;;;;;20.33;10.48;;;16.70;99.90;;;;;;5040677;28;20025;-59
2022/08/20 02:51:21;;;;;;;21.45;10.55;;;16.70;99.90;;;;;;5039833;28;20199;-60
2022/08/20 02:53:47;;;;;;;19.27;9.65;;;16.60;99.90;;;;;;5032988;28;20120;-60
2022/08/20 02:56:13;;;;;;;21.05;9.90;;;16.50;99.90;;;;;;5048269;28;20473;-60
2022/08/20 02:58:40;;;;;;;16.45;9.48;;;16.70;99.90;;;;;;5046434;28;20051;-60
2022/08/20 03:01:10;;;;;;;16.33;10.13;;;16.70;99.90;;;;;;5032792;28;20037;-59
2022/08/20 03:03:37;;;;;;;21.05;9.80;;;16.70;99.90;;;;;;5041187;28;20120;-61
2022/08/20 03:06:03;;;;;;;14.10;9.00;;;16.30;99.90;;;;;;5035290;28;20087;-61
2022/08/20 03:08:28;;;;;;;16.75;9.75;;;16.70;99.90;;;;;;5035058;28;20860;-61
2022/08/20 03:10:55;;;;;;;18.40;9.98;;;16.50;99.90;;;;;;5043402;28;20116;-60
2022/08/20 03:13:22;;;;;;;17.52;9.52;;;16.50;99.90;;;;;;5040706;28;20041;-60
2022/08/20 03:15:54;;;;;;;16.17;9.38;;;16.40;99.90;;;;;;5041155;28;20415;-60
2022/08/20 03:18:22;;;;;;;17.17;9.48;;;16.40;99.90;;;;;;5034449;28;20446;-61
2022/08/20 03:20:49;;;;;;;18.02;8.82;;;16.20;99.90;;;;;;5037367;28;20111;-59
2022/08/20 03:23:15;;;;;;;18.52;9.30;;;16.40;99.90;;;;;;5032044;28;20045;-60
2022/08/20 03:25:42;;;;;;;19.02;10.27;;;16.50;99.90;;;;;;5047656;28;20386;-60
2022/08/20 03:28:08;;;;;;;21.17;9.90;;;16.50;99.90;;;;;;5039823;28;20136;-61
2022/08/20 03:30:33;;;;;;;19.10;9.60;;;16.20;99.90;;;;;;5039806;28;20452;-59
2022/08/20 03:32:59;;;;;;;16.38;9.52;;;16.10;99.90;;;;;;5044601;28;20124;-60
2022/08/20 03:35:27;;;;;;;19.00;9.52;;;16.10;99.90;;;;;;5031418;28;20052;-60
2022/08/20 03:37:54;;;;;;;16.75;9.50;;;16.10;99.90;;;;;;5040716;28;20037;-59
2022/08/20 03:40:26;;;;;;;15.57;9.23;;;16.00;99.90;;;;;;5037737;28;20099;-59
2022/08/20 03:42:52;;;;;;;16.17;8.65;;;16.30;99.90;;;;;;5047524;28;20076;-60
2022/08/20 03:45:19;;;;;;;15.68;9.30;;;16.10;99.90;;;;;;5018636;28;20122;-60
2022/08/20 03:47:46;;;;;;;16.67;9.82;;;16.30;99.90;;;;;;5036453;28;20172;-60
2022/08/20 03:50:12;;;;;;;16.90;9.07;;;16.30;99.90;;;;;;5035356;28;20044;-61
2022/08/20 03:52:38;;;;;;;20.90;9.75;;;16.00;99.90;;;;;;5043104;28;20041;-60
2022/08/20 03:55:05;;;;;;;17.73;9.80;;;16.20;99.90;;;;;;5046043;28;20044;-60
2022/08/20 03:57:31;;;;;;;17.83;9.93;;;16.10;99.90;;;;;;5037331;28;20041;-60
2022/08/20 03:59:57;;;;;;;16.10;9.10;;;16.40;99.90;;;;;;5044184;28;20048;-60
2022/08/20 04:02:23;;;;;;;21.05;10.70;;;16.20;99.90;;;;;;5051178;28;20049;-60
2022/08/20 04:04:49;;;;;;;16.95;9.55;;;16.20;99.90;;;;;;5044297;28;20045;-61
2022/08/20 04:07:24;;;;;;;16.08;9.18;;;16.00;99.90;;;;;;5043474;28;20044;-59
2022/08/20 04:09:54;;;;;;;18.38;9.90;;;16.20;99.90;;;;;;5050765;28;20033;-61
2022/08/20 04:12:20;;;;;;;14.95;9.80;;;16.30;99.90;;;;;;5034491;28;20037;-61
2022/08/20 04:14:45;;;;;;;16.42;9.43;;;16.20;99.90;;;;;;5044558;28;20499;-60
2022/08/20 04:17:12;;;;;;;20.48;9.77;;;15.90;99.90;;;;;;5037077;28;20411;-60
2022/08/20 04:19:39;;;;;;;17.92;9.18;;;16.30;99.90;;;;;;5042577;28;20087;-60
2022/08/20 04:22:06;;;;;;;18.48;8.82;;;16.00;99.90;;;;;;5043563;28;20037;-60
2022/08/20 04:24:33;;;;;;;19.75;9.13;;;16.10;99.90;;;;;;5051592;28;20465;-59
2022/08/20 04:27:01;;;;;;;15.02;9.27;;;16.20;99.90;;;;;;5035180;28;20044;-60
2022/08/20 04:29:27;;;;;;;16.90;8.75;;;16.20;99.90;;;;;;5048778;28;20033;-59
2022/08/20 04:31:53;;;;;;;20.30;9.10;;;15.80;99.90;;;;;;5039583;28;20040;-59
2022/08/20 04:34:19;;;;;;;17.02;8.63;;;16.20;99.90;;;;;;5032326;28;20045;-60
2022/08/20 04:36:46;;;;;;;13.88;8.32;;;15.90;99.90;;;;;;5040729;28;20049;-60
2022/08/20 04:39:15;;;;;;;15.43;7.50;;;15.80;99.90;;;;;;5036266;28;20033;-59
2022/08/20 04:41:42;;;;;;;16.50;8.40;;;15.70;99.90;;;;;;5047497;28;20040;-60
2022/08/20 04:44:09;;;;;;;14.40;7.75;;;16.10;99.90;;;;;;5036653;28;20154;-59
2022/08/20 04:46:35;;;;;;;20.67;9.57;;;15.90;99.90;;;;;;5049004;28;20492;-59
2022/08/20 04:49:02;;;;;;;16.70;8.32;;;15.80;99.90;;;;;;5050812;28;20102;-60
2022/08/20 04:51:27;;;;;;;17.75;9.40;;;15.60;99.90;;;;;;5040499;28;20537;-59
2022/08/20 04:53:55;;;;;;;16.13;8.13;;;15.70;99.90;;;;;;5044156;28;20061;-62
2022/08/20 04:56:26;;;;;;;15.63;8.18;;;15.70;99.90;;;;;;5038602;28;20040;-59
2022/08/20 04:58:54;;;;;;;17.55;8.38;;;15.70;99.90;;;;;;5039829;28;20489;-60
2022/08/20 05:01:22;;;;;;;16.48;8.35;;;16.10;99.90;;;;;;5032707;28;20489;-59
2022/08/20 05:03:48;;;;;;;12.57;7.80;;;16.00;99.90;;;;;;5044224;28;20049;-59
2022/08/20 05:06:16;;;;;;;17.08;8.18;;;15.90;99.90;;;;;;5034206;28;20943;-62
2022/08/20 05:08:42;;;;;;;14.82;7.82;;;15.90;99.90;;;;;;5029478;28;20037;-61
2022/08/20 05:11:08;;;;;;;20.23;8.52;;;15.80;99.90;;;;;;5039572;28;20044;-59
2022/08/20 05:13:34;;;;;;;16.73;8.23;;;16.10;99.90;;;;;;5035941;28;20082;-60
2022/08/20 05:16:01;;;;;;;15.02;8.35;;;16.00;99.90;;;;;;5043255;28;20124;-59
2022/08/20 05:18:31;;;;;;;16.55;7.60;;;15.80;99.90;;;;;;5041552;28;20037;-60
2022/08/20 05:21:02;;;;;;;15.32;6.97;;;15.70;99.90;;;;;;5037375;28;20032;-61
2022/08/20 05:23:28;;;;;;;14.05;7.90;;;15.80;99.90;;;;;;5045065;28;20388;-62
2022/08/20 05:25:56;;;;;;;17.30;7.22;;;15.90;99.90;;;;;;5040150;28;20088;-59
2022/08/20 05:28:25;;;;;;;14.80;6.80;;;15.90;99.90;;;;;;5042131;28;20385;-60
2022/08/20 05:30:52;;;;;;;20.98;7.80;;;15.80;99.90;;;;;;5044086;28;20036;-60
2022/08/20 05:33:20;;;;;;;18.95;7.15;;;15.80;99.90;;;;;;5040079;28;20417;-60
2022/08/20 05:35:48;;;;;;;16.10;6.93;;;15.60;99.90;;;;;;5028560;28;20063;-60
2022/08/20 05:38:16;;;;;;;15.23;7.13;;;15.80;99.90;;;;;;5040825;28;20488;-60
2022/08/20 05:40:42;;;;;;;15.05;7.30;;;15.80;99.90;;;;;;5033665;28;20174;-60
2022/08/20 05:43:08;;;;;;;16.75;7.68;;;15.50;99.90;;;;;;5040673;28;20456;-59
2022/08/20 05:45:36;;;;;;;16.00;7.18;;;15.60;99.90;;;;;;5032468;28;20064;-60
2022/08/20 05:48:14;;;;;;;11.93;7.05;;;15.70;99.90;;;;;;5032037;28;20037;-61
2022/08/20 05:50:42;;;;;;;14.75;7.22;;;15.70;99.90;;;;;;5042633;28;20045;-61
2022/08/20 05:53:08;;;;;;;12.30;7.18;;;15.30;99.90;;;;;;5031441;28;20045;-59
2022/08/20 05:55:36;;;;;;;15.80;7.38;;;15.50;99.90;;;;;;5032119;28;20045;-59
2022/08/20 05:58:07;;;;;;;15.35;6.90;;;15.60;99.90;;;;;;5036596;28;20045;-59
2022/08/20 06:00:34;;;;;;;14.15;7.38;;;15.40;99.90;;;;;;5032022;28;20455;-61
2022/08/20 06:05:45;;;;;;;11.93;7.18;;;15.70;99.90;;;;;;5044829;28;20492;-62
2022/08/20 06:08:11;;;;;;;14.70;7.40;;;15.60;99.90;;;;;;5046147;28;20190;-61
2022/08/20 06:10:39;;;;;;;12.43;7.07;;;15.80;99.90;;;;;;5045348;28;20048;-60
2022/08/20 06:13:06;;;;;;;13.00;7.25;;;15.70;99.90;;;;;;5039878;28;20045;-60
2022/08/20 06:15:33;;;;;;;11.88;6.60;;;15.80;99.90;;;;;;5043261;28;20048;-60
2022/08/20 06:17:59;;;;;;;13.20;6.93;;;16.10;99.90;;;;;;5038843;28;20097;-60
2022/08/20 06:20:27;;;;;;;12.05;6.95;;;16.00;99.90;;;;;;5043940;28;20380;-61
2022/08/20 06:22:53;;;;;;;14.77;6.93;;;15.80;99.90;;;;;;5039549;28;20068;-62
2022/08/20 06:25:19;;;;;;;11.32;6.35;;;15.90;99.90;;;;;;5047382;28;20539;-60
2022/08/20 06:27:45;;;;;;;15.48;7.20;;;16.20;99.90;;;;;;5045775;28;20124;-62
2022/08/20 06:30:13;;;;;;;15.80;7.22;;;16.40;99.90;;;;;;5034615;28;20029;-63
2022/08/20 06:32:38;;;;;;;13.55;6.60;;;16.20;99.90;;;;;;5036079;28;20037;-62
2022/08/20 06:35:07;;;;;;;14.68;7.03;;;16.80;99.90;;;;;;5033911;28;20047;-61
2022/08/20 06:37:37;;;;;;;13.05;6.80;;;16.70;99.90;;;;;;5045256;28;20128;-60
2022/08/20 06:40:23;;;;;;;13.13;6.38;;;16.60;99.90;;;;;;5050672;28;20089;-61
2022/08/20 06:42:50;;;;;;;13.60;5.90;;;17.10;99.90;;;;;;5037452;28;20080;-62
2022/08/20 06:45:25;;;;;;;10.40;5.35;;;17.20;99.90;;;;;;5042725;28;20048;-61
2022/08/20 06:47:52;;;;;;;10.60;5.38;;;17.00;99.90;;;;;;5049782;28;20033;-62
2022/08/20 06:50:21;;;;;;;12.90;5.40;;;17.00;99.90;;;;;;5035543;28;20049;-61
2022/08/20 06:52:47;;;;;;;8.85;4.70;;;17.20;99.90;;;;;;5036866;28;20469;-60
2022/08/20 06:55:15;;;;;;;9.95;4.72;;;17.70;99.90;;;;;;5034923;28;20033;-61
2022/08/20 06:57:40;;;;;;;8.73;3.67;;;17.90;99.90;;;;;;5045005;28;20029;-61
2022/08/20 07:00:10;;;;;;;6.75;4.00;;;17.70;99.90;;;;;;5040625;28;20044;-61
2022/08/20 07:02:36;;;;;;;7.73;3.60;;;17.90;99.90;;;;;;5044025;28;20049;-61
2022/08/20 07:05:04;;;;;;;11.63;3.97;;;18.10;99.90;;;;;;5046357;28;20967;-60
2022/08/20 07:07:29;;;;;;;8.27;3.38;;;18.10;99.90;;;;;;5048254;28;20049;-62
2022/08/20 07:10:00;;;;;;;7.70;2.78;;;18.20;99.90;;;;;;5036615;28;20035;-61
2022/08/20 07:12:26;;;;;;;7.75;3.15;;;18.30;99.90;;;;;;5045712;28;20412;-60
2022/08/20 07:14:51;;;;;;;8.93;3.00;;;18.70;99.90;;;;;;5033929;28;20041;-60
2022/08/20 07:17:17;;;;;;;12.40;2.70;;;18.60;99.90;;;;;;5044696;28;20040;-61
2022/08/20 07:19:42;;;;;;;7.15;2.55;;;18.20;99.90;;;;;;5034619;28;20045;-61
2022/08/20 07:22:08;;;;;;;7.00;2.65;;;18.30;99.90;;;;;;5048497;28;20131;-61
2022/08/20 07:24:33;;;;;;;9.23;2.65;;;18.10;99.90;;;;;;5050700;28;20122;-60
2022/08/20 07:26:59;;;;;;;8.38;2.53;;;18.20;99.90;;;;;;5037689;28;20041;-60
2022/08/20 07:32:33;;;;;;;6.45;2.22;;;18.40;99.90;;;;;;5042543;28;20104;-61
2022/08/20 07:34:55;;;;;;;6.25;1.98;;;18.70;99.90;;;;;;5042284;28;20032;-62
2022/08/20 07:37:22;;;;;;;5.90;1.83;;;19.00;99.90;;;;;;5051152;28;20040;-61
2022/08/20 07:39:48;;;;;;;8.02;1.90;;;18.90;99.90;;;;;;5048682;28;20454;-60
2022/08/20 07:42:14;;;;;;;9.90;1.70;;;19.10;99.90;;;;;;5038765;28;20037;-61
2022/08/20 07:44:39;;;;;;;7.20;1.70;;;19.20;99.90;;;;;;5048992;28;20090;-60
2022/08/20 07:47:05;;;;;;;5.63;1.60;;;19.50;99.90;;;;;;5043875;28;20041;-62
2022/08/20 07:49:31;;;;;;;8.95;1.83;;;19.70;99.90;;;;;;5051808;28;20043;-62
2022/08/20 07:51:57;;;;;;;5.75;1.50;;;19.80;99.90;;;;;;5039583;28;20539;-60
2022/08/20 07:54:23;;;;;;;5.60;1.58;;;19.70;99.90;;;;;;5046698;28;20052;-61
2022/08/20 07:56:48;;;;;;;5.45;1.30;;;19.70;99.90;;;;;;5037221;28;20142;-60
2022/08/20 07:59:14;;;;;;;6.70;1.63;;;19.70;99.90;;;;;;5051620;28;20029;-62
2022/08/20 08:01:39;;;;;;;7.10;1.65;;;19.60;99.90;;;;;;5044395;28;20493;-60
2022/08/20 08:04:05;;;;;;;5.53;1.52;;;19.70;99.90;;;;;;5049335;28;20412;-60
2022/08/20 08:06:31;;;;;;;5.90;1.20;;;19.90;99.90;;;;;;5048933;28;20392;-60
2022/08/20 08:09:12;;;;;;;6.05;1.50;;;20.10;99.90;;;;;;5037016;28;20037;-61
2022/08/20 08:11:41;;;;;;;4.32;1.20;;;20.30;99.90;;;;;;5034056;28;20492;-60
2022/08/20 08:14:10;;;;;;;4.53;1.20;;;20.60;99.90;;;;;;5052875;28;20503;-60
2022/08/20 08:16:36;;;;;;;5.43;1.35;;;20.80;99.90;;;;;;5051470;28;20314;-60
2022/08/20 08:19:04;;;;;;;3.40;1.17;;;21.00;99.90;;;;;;5037214;28;20044;-61
2022/08/20 08:21:30;;;;;;;3.67;0.93;;;21.30;99.90;;;;;;5051058;28;20433;-62
2022/08/20 08:23:57;;;;;;;6.57;1.30;;;21.60;99.90;;;;;;5044870;28;20064;-59
2022/08/20 08:26:22;;;;;;;4.53;1.20;;;22.20;99.90;;;;;;5038157;28;20381;-61
2022/08/20 08:28:48;;;;;;;5.07;1.27;;;22.10;99.90;;;;;;5034454;28;20048;-60
2022/08/20 08:31:14;;;;;;;3.50;0.90;;;22.00;99.90;;;;;;5035802;28;20063;-60
2022/08/20 08:33:40;;;;;;;5.07;1.13;;;22.20;99.90;;;;;;5038400;28;20112;-61
2022/08/20 08:36:09;;;;;;;3.40;1.13;;;22.30;99.90;;;;;;5050896;28;20060;-60
2022/08/20 08:38:37;;;;;;;5.07;1.50;;;22.60;99.90;;;;;;5050636;28;20112;-60
2022/08/20 08:41:12;;;;;;;3.40;0.70;;;22.90;99.90;;;;;;5033784;28;20715;-59
2022/08/20 08:43:38;;;;;;;4.40;0.90;;;23.20;99.90;;;;;;5034170;28;20087;-60
2022/08/20 08:46:08;;;;;;;3.25;1.30;;;24.00;99.00;;;;;;5050867;28;20037;-60
2022/08/20 08:48:37;;;;;;;4.93;1.13;;;24.30;96.90;;;;;;5041196;28;20394;-61
2022/08/20 08:51:10;;;;;;;5.43;1.30;;;24.70;97.40;;;;;;5042791;28;20033;-62
2022/08/20 08:53:44;;;;;;;7.15;1.25;;;25.20;94.90;;;;;;5047771;28;20465;-61
2022/08/20 08:56:10;;;;;;;4.68;1.02;;;25.60;95.40;;;;;;5050872;28;20622;-61
2022/08/20 08:58:36;;;;;;;3.42;1.13;;;26.20;93.50;;;;;;5051374;28;20120;-61
2022/08/20 09:01:16;;;;;;;1.98;0.80;;;26.40;92.50;;;;;;5039816;28;20437;-61
2022/08/20 09:03:45;;;;;;;4.95;1.58;;;26.50;91.60;;;;;;5038011;28;20045;-62
2022/08/20 09:06:20;;;;;;;4.50;1.27;;;26.80;88.60;;;;;;5039766;28;20041;-62
2022/08/20 09:08:50;;;;;;;4.72;1.38;;;27.10;87.80;;;;;;5037589;28;20032;-62
2022/08/20 09:11:17;;;;;;;2.92;0.82;;;27.60;86.10;;;;;;5039445;28;20037;-62
2022/08/20 09:13:43;;;;;;;4.50;1.13;;;27.60;86.40;;;;;;5035759;28;20037;-63
2022/08/20 09:16:13;;;;;;;4.43;1.02;;;27.90;83.70;;;;;;5043568;28;20044;-61
2022/08/20 09:18:39;;;;;;;5.22;1.10;;;28.00;81.70;;;;;;5039746;28;20286;-63
2022/08/20 09:21:05;;;;;;;5.28;1.20;;;27.80;81.10;;;;;;5039768;28;20056;-62
2022/08/20 09:23:31;;;;;;;2.85;0.90;;;27.80;79.00;;;;;;5046726;28;20041;-61
2022/08/20 09:25:57;;;;;;;4.28;1.10;;;27.80;79.10;;;;;;5039495;28;20674;-61
2022/08/20 09:28:22;;;;;;;2.75;1.00;;;27.00;80.10;;;;;;5035718;28;20033;-62
2022/08/20 09:30:48;;;;;;;4.75;0.90;;;26.80;82.40;;;;;;5043112;28;20118;-60
2022/08/20 09:33:13;;;;;;;3.33;0.90;;;26.20;81.40;;;;;;5049871;28;20492;-61
2022/08/20 09:35:39;;;;;;;2.95;0.98;;;25.60;82.80;;;;;;5046248;28;20500;-61
2022/08/20 09:38:05;;;;;;;4.85;1.10;;;25.50;83.90;;;;;;5043695;28;20052;-61
2022/08/20 09:40:31;;;;;;;6.18;1.20;;;25.70;82.70;;;;;;5050994;28;20361;-61
2022/08/20 09:42:56;;;;;;;2.92;0.80;;;26.20;79.10;;;;;;5047771;28;20045;-60
2022/08/20 09:45:22;;;;;;;1.75;0.70;;;26.90;75.00;;;;;;5049925;28;20407;-60
2022/08/20 09:47:48;;;;;;;5.07;0.95;;;27.20;73.00;;;;;;5050952;28;20056;-61
2022/08/20 09:50:14;;;;;;;3.17;0.80;;;27.10;71.90;;;;;;5049464;28;20869;-61
2022/08/20 09:52:46;;;;;;;3.65;0.70;;;26.70;66.70;;;;;;5049441;28;20403;-61
2022/08/20 09:55:23;;;;;;;2.20;1.10;;;25.90;67.90;;;;;;5045082;28;20041;-60
2022/08/20 09:57:50;;;;;;;3.95;1.00;;;25.80;71.50;;;;;;5034891;28;20392;-60
2022/08/20 10:00:16;;;;;;;4.25;0.93;;;25.30;69.80;;;;;;5051040;28;20041;-60
2022/08/20 10:02:42;;;;;;;4.35;1.10;;;25.30;74.20;;;;;;5052042;28;20141;-60
2022/08/20 10:05:09;;;;;;;4.28;0.95;;;25.90;73.30;;;;;;5036997;28;20064;-62
2022/08/20 10:07:37;;;;;;;4.30;1.10;;;26.60;71.40;;;;;;5031618;28;20461;-61
2022/08/20 10:10:04;;;;;;;3.85;0.90;;;26.10;69.50;;;;;;5048200;28;20029;-60
2022/08/20 10:12:29;;;;;;;4.15;0.88;;;26.00;69.90;;;;;;5049227;28;20036;-61
2022/08/20 10:14:55;;;;;;;5.72;1.08;;;26.00;71.20;;;;;;5033735;28;20401;-61
2022/08/20 10:17:21;;;;;;;4.07;1.02;;;25.60;72.80;;;;;;5036359;28;20127;-60
2022/08/20 10:19:47;;;;;;;3.65;0.80;;;25.30;73.90;;;;;;5034316;28;20168;-60
2022/08/20 10:22:12;;;;;;;4.07;1.02;;;24.90;75.70;;;;;;5034335;28;20041;-61
2022/08/20 10:24:38;;;;;;;4.30;1.10;;;24.50;74.30;;;;;;5041733;28;20039;-61
2022/08/20 10:27:04;;;;;;;4.97;1.30;;;24.60;75.70;;;;;;5055237;28;20049;-61
2022/08/20 10:29:30;;;;;;;2.85;0.95;;;24.50;75.90;;;;;;5053754;28;20086;-61
2022/08/20 10:31:56;;;;;;;2.83;1.00;;;24.50;75.00;;;;;;5051821;28;20438;-62
2022/08/20 10:34:23;;;;;;;4.05;0.80;;;24.40;76.30;;;;;;5049427;28;20072;-60
2022/08/20 10:36:49;;;;;;;3.05;0.93;;;24.30;75.20;;;;;;5050957;28;20060;-60
2022/08/20 10:39:14;;;;;;;4.95;1.50;;;24.30;73.50;;;;;;5055761;28;20036;-60
2022/08/20 10:41:40;;;;;;;5.35;1.10;;;24.30;72.80;;;;;;5054795;28;20148;-61
2022/08/20 10:44:07;;;;;;;4.05;0.90;;;24.30;71.60;;;;;;5054821;28;20037;-60
2022/08/20 10:46:32;;;;;;;6.13;1.08;;;24.30;71.80;;;;;;5041167;28;20128;-62
2022/08/20 10:48:58;;;;;;;8.93;1.48;;;24.20;70.80;;;;;;5049281;28;20128;-62
2022/08/20 10:51:23;;;;;;;4.15;1.10;;;24.00;70.90;;;;;;5053220;28;20465;-61
2022/08/20 10:53:49;;;;;;;5.10;1.00;;;23.90;72.30;;;;;;5054971;28;20041;-60
2022/08/20 10:56:15;;;;;;;3.25;1.08;;;23.90;72.20;;;;;;5049681;28;20401;-61
2022/08/20 10:58:40;;;;;;;4.15;1.00;;;23.90;70.10;;;;;;5049297;28;20514;-61
2022/08/20 11:01:07;;;;;;;2.97;0.80;;;24.00;69.60;;;;;;5052978;28;20068;-60
2022/08/20 11:03:33;;;;;;;4.50;0.82;;;24.10;69.40;;;;;;5047118;28;20049;-61
2022/08/20 11:05:59;;;;;;;3.28;1.40;;;24.40;71.70;;;;;;5035647;28;20053;-60
2022/08/20 11:08:24;;;;;;;3.72;1.17;;;24.40;73.20;;;;;;5038125;28;20117;-60
2022/08/20 11:10:51;;;;;;;7.97;1.17;;;24.40;73.70;;;;;;5043801;28;20383;-61
2022/08/20 11:13:16;;;;;;;3.33;1.10;;;24.50;73.20;;;;;;5041249;28;20044;-60
2022/08/20 11:15:43;;;;;;;3.80;1.20;;;24.70;73.00;;;;;;5054458;28;20453;-59
2022/08/20 11:18:10;;;;;;;5.50;1.33;;;24.80;72.80;;;;;;5048861;28;20049;-60
2022/08/20 11:20:36;;;;;;;1.73;1.00;;;24.90;71.10;;;;;;5048550;28;20086;-60
2022/08/20 11:23:02;;;;;;;2.75;0.82;;;24.60;70.60;;;;;;5053206;28;20045;-61
2022/08/20 11:25:28;;;;;;;3.30;1.02;;;24.50;72.40;;;;;;5054131;28;20041;-60
2022/08/20 11:27:55;;;;;;;7.80;1.58;;;24.40;72.80;;;;;;5053794;28;20090;-60
2022/08/20 11:30:31;;;;;;;6.82;1.27;;;24.30;69.30;;;;;;5043974;28;20039;-60
2022/08/20 11:32:58;;;;;;;6.05;1.10;;;24.20;69.30;;;;;;5040626;28;20041;-61
2022/08/20 11:35:25;;;;;;;5.32;1.42;;;23.90;69.20;;;;;;5044381;28;20037;-60
2022/08/20 11:37:53;;;;;;;5.07;1.00;;;24.00;68.80;;;;;;5044415;28;20033;-60
2022/08/20 11:40:19;;;;;;;4.22;0.93;;;24.20;69.60;;;;;;5044873;28;20107;-61
2022/08/20 11:42:46;;;;;;;5.22;1.20;;;24.10;65.70;;;;;;5045322;28;20036;-61
2022/08/20 11:45:13;;;;;;;4.53;1.33;;;24.20;67.60;;;;;;5042256;28;20045;-61
2022/08/20 11:47:39;;;;;;;3.88;1.13;;;24.50;66.30;;;;;;5041540;28;20048;-62
2022/08/20 11:50:17;;;;;;;3.15;1.33;;;24.70;65.50;;;;;;5037410;28;20045;-61
2022/08/20 11:52:43;;;;;;;3.65;1.00;;;24.90;61.50;;;;;;5041603;28;20043;-61
2022/08/20 11:55:10;;;;;;;4.45;1.30;;;25.10;57.30;;;;;;5041468;28;20032;-62
2022/08/20 11:57:40;;;;;;;4.78;1.63;;;25.00;57.90;;;;;;5040961;28;20092;-61
2022/08/20 12:00:10;;;;;;;4.45;1.33;;;25.10;59.80;;;;;;5040321;28;20128;-60
2022/08/20 12:02:35;;;;;;;3.72;1.20;;;25.20;60.90;;;;;;5040385;28;20115;-62
2022/08/20 12:05:01;;;;;;;3.63;1.10;;;25.10;61.50;;;;;;5037199;28;20053;-61
2022/08/20 12:07:27;;;;;;;5.47;1.23;;;25.20;62.10;;;;;;5038711;28;20036;-60
2022/08/20 12:09:53;;;;;;;5.15;1.33;;;25.10;63.40;;;;;;5039921;28;20051;-62
2022/08/20 12:12:22;;;;;;;2.33;1.25;;;24.80;62.80;;;;;;5041701;28;20045;-62
2022/08/20 12:14:47;;;;;;;6.10;1.92;;;24.60;61.50;;;;;;5040489;28;20408;-60
2022/08/20 12:17:22;;;;;;;2.80;1.27;;;24.60;61.20;;;;;;5040837;28;20049;-61
2022/08/20 12:19:50;;;;;;;3.50;1.00;;;24.70;62.70;;;;;;5039744;28;20044;-60
2022/08/20 12:22:15;;;;;;;9.15;1.90;;;24.70;63.40;;;;;;5038343;28;20045;-61
2022/08/20 12:24:41;;;;;;;7.38;1.75;;;24.70;62.90;;;;;;5039244;28;20048;-61
2022/08/20 12:27:30;;;;;;;3.63;1.40;;;24.80;63.80;;;;;;5040160;28;20041;-60
2022/08/20 12:29:58;;;;;;;6.82;1.83;;;25.10;64.50;;;;;;5038816;28;20063;-60
2022/08/20 12:32:29;;;;;;;37.55;4.10;;;25.50;62.40;;;;;;5040228;28;20106;-61
2022/08/20 12:34:56;;;;;;;8.82;2.30;;;25.80;61.10;;;;;;5036440;28;21357;-62
2022/08/20 12:37:25;;;;;;;6.40;1.20;;;25.70;60.40;;;;;;5042106;28;20048;-61
2022/08/20 12:39:53;;;;;;;5.18;1.20;;;25.60;60.50;;;;;;5051672;28;20434;-60
2022/08/20 12:42:19;;;;;;;6.68;1.48;;;25.50;60.10;;;;;;5050874;28;20037;-61
2022/08/20 12:44:45;;;;;;;3.05;1.45;;;25.30;61.00;;;;;;5041837;28;20045;-60
2022/08/20 12:47:15;;;;;;;4.88;1.30;;;25.10;60.90;;;;;;5041880;28;20076;-60